createdAt,value
2019-03-21T00:00:21.152Z,19.27
2019-03-21T00:02:51.435Z,27.48
2019-03-21T00:05:21.022Z,23.55
2019-03-21T00:07:49.640Z,18.92
2019-03-21T00:10:37.276Z,21.67
2019-03-21T00:13:07.899Z,20.92
2019-03-21T00:15:39.736Z,10.20
2019-03-21T00:18:11.547Z,13.88
2019-03-21T00:20:41.621Z,14.18
2019-03-21T00:23:09.901Z,17.92
2019-03-21T00:25:39.056Z,35.85
2019-03-21T00:28:07.789Z,29.27
2019-03-21T00:30:36.478Z,21.20
2019-03-21T00:33:06.930Z,21.67
2019-03-21T00:35:35.292Z,18.70
2019-03-21T00:38:04.071Z,13.93
2019-03-21T00:40:35.324Z,19.23
2019-03-21T00:43:06.331Z,14.40
2019-03-21T00:45:36.838Z,14.02
2019-03-21T00:48:05.989Z,13.38
2019-03-21T00:50:35.897Z,15.48
2019-03-21T00:53:04.838Z,18.77
2019-03-21T00:55:34.488Z,19.12
2019-03-21T00:58:03.163Z,16.60
2019-03-21T01:00:34.450Z,16.30
2019-03-21T01:03:03.834Z,16.30
2019-03-21T01:05:31.976Z,17.42
2019-03-21T01:08:01.075Z,16.45
2019-03-21T01:10:31.231Z,18.52
2019-03-21T01:12:59.629Z,16.30
2019-03-21T01:15:29.891Z,17.62
2019-03-21T01:17:59.411Z,16.75
2019-03-21T01:20:29.534Z,24.02
2019-03-21T01:22:57.910Z,14.25
2019-03-21T01:25:30.087Z,19.40
2019-03-21T01:27:58.867Z,28.00
2019-03-21T01:30:27.245Z,16.17
2019-03-21T01:32:57.345Z,16.20
2019-03-21T01:35:28.014Z,16.15
2019-03-21T01:37:58.129Z,15.52
2019-03-21T01:40:27.724Z,14.48
2019-03-21T01:42:57.695Z,22.83
2019-03-21T01:45:27.759Z,25.70
2019-03-21T01:47:58.162Z,21.83
2019-03-21T01:50:28.095Z,22.95
2019-03-21T01:52:56.778Z,29.80
2019-03-21T01:55:27.008Z,22.42
2019-03-21T01:57:55.791Z,26.48
2019-03-21T02:00:26.927Z,31.15
2019-03-21T02:02:57.859Z,24.37
2019-03-21T02:05:26.586Z,20.25
2019-03-21T02:07:56.795Z,29.30
2019-03-21T02:10:26.989Z,30.45
2019-03-21T02:12:56.180Z,37.60
2019-03-21T02:15:26.928Z,38.10
2019-03-21T02:17:56.136Z,37.47
2019-03-21T02:20:26.282Z,36.92
2019-03-21T02:22:55.722Z,33.55
2019-03-21T02:25:26.057Z,33.15
2019-03-21T02:27:55.174Z,29.95
2019-03-21T02:30:25.907Z,25.17
2019-03-21T02:32:58.900Z,31.92
2019-03-21T02:35:31.016Z,28.17
2019-03-21T02:37:58.967Z,32.63
2019-03-21T02:40:27.037Z,44.53
2019-03-21T02:42:55.677Z,39.53
2019-03-21T02:45:25.730Z,33.95
2019-03-21T02:47:54.880Z,37.92
2019-03-21T02:50:26.828Z,39.92
2019-03-21T02:52:55.244Z,29.20
2019-03-21T02:55:25.567Z,29.02
2019-03-21T02:57:55.699Z,29.90
2019-03-21T03:00:25.345Z,48.85
2019-03-21T03:02:56.813Z,41.95
2019-03-21T03:05:26.136Z,40.60
2019-03-21T03:07:54.957Z,43.13
2019-03-21T03:10:26.786Z,53.30
2019-03-21T03:12:55.353Z,45.55
2019-03-21T03:15:25.991Z,45.90
2019-03-21T03:17:54.801Z,50.90
2019-03-21T03:20:25.794Z,49.13
2019-03-21T03:22:54.640Z,48.45
2019-03-21T03:25:23.354Z,48.67
2019-03-21T03:27:53.517Z,46.33
2019-03-21T03:30:24.429Z,53.15
2019-03-21T03:32:54.692Z,50.05
2019-03-21T03:35:22.936Z,42.45
2019-03-21T03:37:53.008Z,42.67
2019-03-21T03:40:24.952Z,44.92
2019-03-21T03:42:55.065Z,48.17
2019-03-21T03:45:36.602Z,46.10
2019-03-21T03:47:56.575Z,44.92
2019-03-21T03:50:26.425Z,41.55
2019-03-21T03:52:55.322Z,46.17
2019-03-21T03:55:25.392Z,47.22
2019-03-21T03:57:54.834Z,46.20
2019-03-21T04:00:24.891Z,53.17
2019-03-21T04:02:55.303Z,51.63
2019-03-21T04:05:23.989Z,55.22
2019-03-21T04:07:52.322Z,53.03
2019-03-21T04:10:23.793Z,52.20
2019-03-21T04:12:54.039Z,58.00
2019-03-21T04:15:24.154Z,65.80
2019-03-21T04:17:54.378Z,58.00
2019-03-21T04:20:25.511Z,63.50
2019-03-21T04:22:55.669Z,64.68
2019-03-21T04:25:27.934Z,70.10
2019-03-21T04:27:56.604Z,73.15
2019-03-21T04:30:25.485Z,73.95
2019-03-21T04:32:54.260Z,81.22
2019-03-21T04:35:24.801Z,82.05
2019-03-21T04:37:54.680Z,79.03
2019-03-21T04:40:24.802Z,80.40
2019-03-21T04:42:54.574Z,79.93
2019-03-21T04:45:23.215Z,89.95
2019-03-21T04:47:53.429Z,90.62
2019-03-21T04:50:25.038Z,88.78
2019-03-21T04:52:55.171Z,90.80
2019-03-21T04:55:26.600Z,100.87
2019-03-21T04:57:55.724Z,97.00
2019-03-21T05:00:27.423Z,91.78
2019-03-21T05:02:58.363Z,99.47
2019-03-21T05:05:27.145Z,100.12
2019-03-21T05:07:56.970Z,96.65
2019-03-21T05:10:27.041Z,106.82
2019-03-21T05:12:55.762Z,107.72
2019-03-21T05:15:27.327Z,106.07
2019-03-21T05:17:59.036Z,97.45
2019-03-21T05:20:28.314Z,93.20
2019-03-21T05:23:01.861Z,95.78
2019-03-21T05:25:31.136Z,102.00
2019-03-21T05:28:02.483Z,91.90
2019-03-21T05:30:34.271Z,92.78
2019-03-21T05:33:02.942Z,92.97
2019-03-21T05:35:33.174Z,95.95
2019-03-21T05:38:01.581Z,92.75
2019-03-21T05:40:32.116Z,91.82
2019-03-21T05:43:04.268Z,92.90
2019-03-21T05:45:32.569Z,85.55
2019-03-21T05:48:02.722Z,83.78
2019-03-21T05:50:31.954Z,85.62
2019-03-21T05:53:00.353Z,82.78
2019-03-21T05:55:30.657Z,81.43
2019-03-21T05:58:00.988Z,83.07
2019-03-21T06:00:32.935Z,80.87
2019-03-21T06:03:01.716Z,75.80
2019-03-21T06:05:31.797Z,74.78
2019-03-21T06:08:04.217Z,80.93
2019-03-21T06:10:34.675Z,72.37
2019-03-21T06:13:03.044Z,69.22
2019-03-21T06:15:33.343Z,54.08
2019-03-21T06:18:26.194Z,67.53
2019-03-21T06:20:58.432Z,67.60
2019-03-21T06:23:48.848Z,64.05
2019-03-21T06:26:29.931Z,63.28
2019-03-21T06:28:58.685Z,57.13
2019-03-21T06:31:27.517Z,71.18
2019-03-21T06:33:55.910Z,57.05
2019-03-21T06:36:25.192Z,76.25
2019-03-21T06:38:53.859Z,67.68
2019-03-21T06:41:24.075Z,68.55
2019-03-21T06:43:54.008Z,162.88
2019-03-21T06:46:24.236Z,159.98
2019-03-21T06:48:52.351Z,169.70
2019-03-21T06:51:22.715Z,93.82
2019-03-21T06:53:51.412Z,121.00
2019-03-21T06:56:21.480Z,77.03
2019-03-21T06:58:52.796Z,77.57
2019-03-21T07:01:21.827Z,125.82
2019-03-21T07:03:51.929Z,123.03
2019-03-21T07:06:20.974Z,106.80
2019-03-21T07:08:51.293Z,89.93
2019-03-21T07:11:20.102Z,79.05
2019-03-21T07:13:48.491Z,67.70
2019-03-21T07:16:18.586Z,90.07
2019-03-21T07:18:48.648Z,38.78
2019-03-21T07:21:19.103Z,47.15
2019-03-21T07:23:49.160Z,58.72
2019-03-21T07:26:19.374Z,73.50
2019-03-21T07:28:48.052Z,49.80
2019-03-21T07:31:24.443Z,46.22
2019-03-21T07:33:54.601Z,51.72
2019-03-21T07:36:26.079Z,52.10
2019-03-21T07:38:52.130Z,48.95
2019-03-21T07:41:20.920Z,48.30
2019-03-21T07:43:51.139Z,51.58
2019-03-21T07:46:21.255Z,51.60
2019-03-21T07:48:51.372Z,59.03
2019-03-21T07:51:21.509Z,53.35
2019-03-21T07:53:49.880Z,58.75
2019-03-21T07:56:18.678Z,53.05
2019-03-21T07:58:48.988Z,60.08
2019-03-21T08:01:17.854Z,68.25
2019-03-21T08:03:47.634Z,62.03
2019-03-21T08:06:17.423Z,61.20
2019-03-21T08:08:47.520Z,68.30
2019-03-21T08:11:17.860Z,66.70
2019-03-21T08:13:47.735Z,63.45
2019-03-21T08:16:16.920Z,66.85
2019-03-21T08:18:45.526Z,68.78
2019-03-21T08:21:14.237Z,71.18
2019-03-21T08:23:42.893Z,67.82
2019-03-21T08:26:11.275Z,65.07
2019-03-21T08:28:39.856Z,65.80
2019-03-21T08:31:16.952Z,72.25
2019-03-21T08:33:47.592Z,65.15
2019-03-21T08:36:16.967Z,70.00
2019-03-21T08:38:45.696Z,64.55
2019-03-21T08:41:14.345Z,63.13
2019-03-21T08:43:45.017Z,73.57
2019-03-21T08:46:15.125Z,75.25
2019-03-21T08:48:44.995Z,81.78
2019-03-21T08:51:15.124Z,81.07
2019-03-21T08:53:43.920Z,76.78
2019-03-21T08:56:12.492Z,89.03
2019-03-21T08:58:41.694Z,89.35
2019-03-21T09:01:10.790Z,87.45
2019-03-21T09:03:41.509Z,88.82
2019-03-21T09:06:11.608Z,88.35
2019-03-21T09:08:40.011Z,86.05
2019-03-21T09:11:09.822Z,76.65
2019-03-21T09:13:39.889Z,82.28
2019-03-21T09:16:10.818Z,81.12
2019-03-21T09:18:39.057Z,70.28
2019-03-21T09:21:18.876Z,70.43
2019-03-21T09:23:36.646Z,73.97
2019-03-21T09:26:07.257Z,69.37
2019-03-21T09:28:35.955Z,71.12
2019-03-21T09:31:04.860Z,66.40
2019-03-21T09:33:35.009Z,66.20
2019-03-21T09:36:05.273Z,61.47
2019-03-21T09:38:35.422Z,57.08
2019-03-21T09:41:03.977Z,53.83
2019-03-21T09:43:34.161Z,54.70
2019-03-21T09:46:04.335Z,64.87
2019-03-21T09:48:34.090Z,51.20
2019-03-21T09:51:02.527Z,51.88
2019-03-21T09:53:32.426Z,51.25
2019-03-21T09:56:02.597Z,55.50
2019-03-21T09:58:31.228Z,48.72
2019-03-21T10:01:00.572Z,46.70
2019-03-21T10:03:29.716Z,45.03
2019-03-21T10:06:00.565Z,45.47
2019-03-21T10:08:29.248Z,48.70
2019-03-21T10:10:57.946Z,45.80
2019-03-21T10:13:26.639Z,44.53
2019-03-21T10:15:55.604Z,48.10
2019-03-21T10:18:25.647Z,48.25
2019-03-21T10:20:55.449Z,45.90
2019-03-21T10:23:24.176Z,44.03
2019-03-21T10:25:54.280Z,42.78
2019-03-21T10:28:23.029Z,41.97
2019-03-21T10:30:52.656Z,40.05
2019-03-21T10:33:21.217Z,40.20
2019-03-21T10:35:49.514Z,41.10
2019-03-21T10:38:20.123Z,31.17
2019-03-21T10:40:50.935Z,33.35
2019-03-21T10:43:21.019Z,30.05
2019-03-21T10:45:50.893Z,34.05
2019-03-21T10:48:22.560Z,36.05
2019-03-21T10:50:50.807Z,33.67
2019-03-21T10:53:21.066Z,35.60
2019-03-21T10:55:49.646Z,35.88
2019-03-21T10:58:19.695Z,34.08
2019-03-21T11:00:50.078Z,30.48
2019-03-21T11:03:20.293Z,29.92
2019-03-21T11:05:50.452Z,34.30
2019-03-21T11:08:19.827Z,33.05
2019-03-21T11:10:49.874Z,33.40
2019-03-21T11:13:18.843Z,34.00
2019-03-21T11:15:47.523Z,32.67
2019-03-21T11:18:16.210Z,33.58
2019-03-21T11:20:46.239Z,38.53
2019-03-21T11:23:16.467Z,30.98
2019-03-21T11:25:44.704Z,37.83
2019-03-21T11:28:13.299Z,32.53
2019-03-21T11:30:45.370Z,35.30
2019-03-21T11:33:13.854Z,32.10
2019-03-21T11:35:43.624Z,33.10
2019-03-21T11:38:13.817Z,35.72
2019-03-21T11:40:43.917Z,34.35
2019-03-21T11:43:17.281Z,38.60
2019-03-21T11:45:47.967Z,35.08
2019-03-21T11:48:17.465Z,36.33
2019-03-21T11:50:46.539Z,38.15
2019-03-21T11:53:15.718Z,38.88
2019-03-21T11:55:45.760Z,40.63
2019-03-21T11:58:17.632Z,35.47
2019-03-21T12:00:45.379Z,38.35
2019-03-21T12:03:13.130Z,42.17
2019-03-21T12:05:43.848Z,44.05
2019-03-21T12:08:13.971Z,47.22
2019-03-21T12:10:43.083Z,41.63
2019-03-21T12:13:11.461Z,40.90
2019-03-21T12:15:42.415Z,45.50
2019-03-21T12:18:11.078Z,42.30
2019-03-21T12:20:39.852Z,45.08
2019-03-21T12:23:08.538Z,49.58
2019-03-21T12:25:37.243Z,48.20
2019-03-21T12:28:07.377Z,42.75
2019-03-21T12:30:41.451Z,46.22
2019-03-21T12:33:10.042Z,45.10
2019-03-21T12:35:38.852Z,43.20
2019-03-21T12:38:08.964Z,49.08
2019-03-21T12:40:37.546Z,45.47
2019-03-21T12:43:06.846Z,47.58
2019-03-21T12:45:35.717Z,44.30
2019-03-21T12:48:06.267Z,47.05
2019-03-21T12:50:36.487Z,43.38
2019-03-21T12:53:06.607Z,46.42
2019-03-21T12:55:35.294Z,44.92
2019-03-21T12:58:05.357Z,48.30
2019-03-21T13:00:34.798Z,48.08
2019-03-21T13:03:03.864Z,49.63
2019-03-21T13:05:34.063Z,44.63
2019-03-21T13:08:02.798Z,46.25
2019-03-21T13:10:31.077Z,51.13
2019-03-21T13:13:01.338Z,47.62
2019-03-21T13:15:30.389Z,43.70
2019-03-21T13:18:00.696Z,42.25
2019-03-21T13:20:30.337Z,43.45
2019-03-21T13:23:00.393Z,42.90
2019-03-21T13:25:29.038Z,42.97
2019-03-21T13:27:58.000Z,44.42
2019-03-21T13:30:26.315Z,36.05
2019-03-21T13:32:56.409Z,39.88
2019-03-21T13:35:32.789Z,39.05
2019-03-21T13:37:55.526Z,39.33
2019-03-21T13:40:25.312Z,37.13
2019-03-21T13:42:55.397Z,36.72
2019-03-21T13:45:25.560Z,34.80
2019-03-21T13:47:54.777Z,34.55
2019-03-21T13:50:25.195Z,30.50
2019-03-21T13:53:04.285Z,32.60
2019-03-21T13:55:22.389Z,32.85
2019-03-21T13:57:50.970Z,46.50
2019-03-21T14:00:22.131Z,33.03
2019-03-21T14:02:51.920Z,30.98
2019-03-21T14:05:21.985Z,33.22
2019-03-21T14:07:50.295Z,37.30
2019-03-21T14:10:20.435Z,30.62
2019-03-21T14:12:51.187Z,33.47
2019-03-21T14:15:22.825Z,33.65
2019-03-21T14:17:51.592Z,30.73
2019-03-21T14:20:21.920Z,32.90
2019-03-21T14:22:50.626Z,27.58
2019-03-21T14:25:20.763Z,33.30
2019-03-21T14:27:51.177Z,26.65
2019-03-21T14:30:21.316Z,27.85
2019-03-21T14:32:49.661Z,27.40
2019-03-21T14:35:19.746Z,28.65
2019-03-21T14:37:48.350Z,30.80
2019-03-21T14:40:18.455Z,24.37
2019-03-21T14:42:47.635Z,23.40
2019-03-21T14:45:17.335Z,28.25
2019-03-21T14:47:47.431Z,27.10
2019-03-21T14:50:17.596Z,26.73
2019-03-21T14:52:46.311Z,29.00
2019-03-21T14:55:16.499Z,28.23
2019-03-21T14:57:46.585Z,24.42
2019-03-21T15:00:17.319Z,27.60
2019-03-21T15:02:47.715Z,26.52
2019-03-21T15:05:16.489Z,27.75
2019-03-21T15:07:46.545Z,25.45
2019-03-21T15:10:16.783Z,23.70
2019-03-21T15:12:46.901Z,27.80
2019-03-21T15:15:16.993Z,29.55
2019-03-21T15:17:47.476Z,27.55
2019-03-21T15:20:18.219Z,27.37
2019-03-21T15:22:47.014Z,28.33
2019-03-21T15:25:16.792Z,25.37
2019-03-21T15:27:47.060Z,24.27
2019-03-21T15:30:16.652Z,24.30
2019-03-21T15:32:45.254Z,28.80
2019-03-21T15:35:15.462Z,32.45
2019-03-21T15:37:45.598Z,37.38
2019-03-21T15:40:15.719Z,35.83
2019-03-21T15:42:46.151Z,34.45
2019-03-21T15:45:22.895Z,29.92
2019-03-21T15:47:46.684Z,32.25
2019-03-21T15:50:29.397Z,32.60
2019-03-21T15:52:59.812Z,32.45
2019-03-21T15:55:29.841Z,31.87
2019-03-21T15:58:00.003Z,34.15
2019-03-21T16:00:33.978Z,30.35
2019-03-21T16:03:02.564Z,31.98
2019-03-21T16:05:32.899Z,33.35
2019-03-21T16:08:03.088Z,37.08
2019-03-21T16:10:31.097Z,36.05
2019-03-21T16:13:01.492Z,39.28
2019-03-21T16:15:31.544Z,37.28
2019-03-21T16:18:00.482Z,34.05
2019-03-21T16:20:30.886Z,38.40
2019-03-21T16:23:00.990Z,37.97
2019-03-21T16:25:31.235Z,35.85
2019-03-21T16:27:59.934Z,36.95
2019-03-21T16:30:30.072Z,40.45
2019-03-21T16:32:58.349Z,41.03
2019-03-21T16:35:27.533Z,38.38
2019-03-21T16:37:56.128Z,43.25
2019-03-21T16:40:26.202Z,40.67
2019-03-21T16:42:56.491Z,41.75
2019-03-21T16:45:25.034Z,39.90
2019-03-21T16:47:55.072Z,44.60
2019-03-21T16:50:25.227Z,42.85
2019-03-21T16:52:54.321Z,44.45
2019-03-21T16:55:24.607Z,42.70
2019-03-21T16:57:53.269Z,43.20
2019-03-21T17:00:23.316Z,44.03
2019-03-21T17:02:53.090Z,41.85
2019-03-21T17:05:22.460Z,39.80
2019-03-21T17:07:51.619Z,44.70
2019-03-21T17:10:20.712Z,40.65
2019-03-21T17:12:50.896Z,44.05
2019-03-21T17:15:20.952Z,44.20
2019-03-21T17:17:50.110Z,42.10
2019-03-21T17:20:20.006Z,43.92
2019-03-21T17:22:51.548Z,40.10
2019-03-21T17:25:20.206Z,46.05
2019-03-21T17:27:48.822Z,47.10
2019-03-21T17:30:17.575Z,40.70
2019-03-21T17:32:47.787Z,46.03
2019-03-21T17:35:16.477Z,47.50
2019-03-21T17:37:45.078Z,42.62
2019-03-21T17:40:14.888Z,41.03
2019-03-21T17:42:46.018Z,39.92
2019-03-21T17:45:15.826Z,43.03
2019-03-21T17:47:44.961Z,53.42
2019-03-21T17:50:17.059Z,46.05
2019-03-21T17:52:48.262Z,41.13
2019-03-21T17:55:18.653Z,47.45
2019-03-21T17:57:48.887Z,43.28
2019-03-21T18:00:18.509Z,41.72
2019-03-21T18:02:50.492Z,41.30
2019-03-21T18:05:19.729Z,41.50
2019-03-21T18:07:50.126Z,44.80
2019-03-21T18:10:27.303Z,46.40
2019-03-21T18:12:56.059Z,40.30
2019-03-21T18:15:26.764Z,41.78
2019-03-21T18:17:57.157Z,45.95
2019-03-21T18:20:25.780Z,41.78
2019-03-21T18:22:56.362Z,46.00
2019-03-21T18:25:27.163Z,43.87
2019-03-21T18:27:57.258Z,47.25
2019-03-21T18:30:28.015Z,46.95
2019-03-21T18:32:58.203Z,44.78
2019-03-21T18:35:28.547Z,43.65
2019-03-21T18:37:58.716Z,50.20
2019-03-21T18:40:27.440Z,48.55
2019-03-21T18:42:57.478Z,46.58
2019-03-21T18:45:27.709Z,45.60
2019-03-21T18:47:57.172Z,47.72
2019-03-21T18:50:27.136Z,47.20
2019-03-21T18:52:57.432Z,45.47
2019-03-21T18:55:27.977Z,48.38
2019-03-21T18:57:56.787Z,48.28
2019-03-21T19:00:27.083Z,47.53
2019-03-21T19:02:55.770Z,50.80
2019-03-21T19:05:25.904Z,51.88
2019-03-21T19:07:54.570Z,45.33
2019-03-21T19:10:23.241Z,47.60
2019-03-21T19:12:51.956Z,53.75
2019-03-21T19:15:22.215Z,50.85
2019-03-21T19:17:51.594Z,44.90
2019-03-21T19:20:20.442Z,44.40
2019-03-21T19:22:50.595Z,49.35
2019-03-21T19:25:19.833Z,50.28
2019-03-21T19:27:49.066Z,51.90
2019-03-21T19:30:17.374Z,43.13
2019-03-21T19:32:47.654Z,50.28
2019-03-21T19:35:16.260Z,54.15
2019-03-21T19:37:46.083Z,47.92
2019-03-21T19:40:14.863Z,51.03
2019-03-21T19:42:43.652Z,47.38
2019-03-21T19:45:13.457Z,47.25
2019-03-21T19:47:44.313Z,45.00
2019-03-21T19:50:14.614Z,45.67
2019-03-21T19:52:43.301Z,53.22
2019-03-21T19:55:12.406Z,51.90
2019-03-21T19:57:41.074Z,48.17
2019-03-21T20:00:12.627Z,49.03
2019-03-21T20:02:42.724Z,53.00
2019-03-21T20:05:12.826Z,47.35
2019-03-21T20:07:41.456Z,44.40
2019-03-21T20:10:11.760Z,37.05
2019-03-21T20:12:40.690Z,47.05
2019-03-21T20:15:10.390Z,48.10
2019-03-21T20:17:39.797Z,37.28
2019-03-21T20:20:10.080Z,34.22
2019-03-21T20:22:39.192Z,47.78
2019-03-21T20:25:07.825Z,49.80
2019-03-21T20:27:37.985Z,48.35
2019-03-21T20:30:10.398Z,47.50
2019-03-21T20:32:39.674Z,49.13
2019-03-21T20:35:10.276Z,40.40
2019-03-21T20:37:40.360Z,41.35
2019-03-21T20:40:11.093Z,49.13
2019-03-21T20:42:39.843Z,58.40
2019-03-21T20:45:10.766Z,50.22
2019-03-21T20:47:41.127Z,50.42
2019-03-21T20:50:10.946Z,46.50
2019-03-21T20:52:39.700Z,49.88
2019-03-21T20:55:10.065Z,55.58
2019-03-21T20:57:38.992Z,42.60
2019-03-21T21:00:10.468Z,41.55
2019-03-21T21:02:40.766Z,54.00
2019-03-21T21:05:11.143Z,46.20
2019-03-21T21:07:41.108Z,42.83
2019-03-21T21:10:10.769Z,40.67
2019-03-21T21:12:40.544Z,33.58
2019-03-21T21:15:10.905Z,31.23
2019-03-21T21:17:39.695Z,33.15
2019-03-21T21:20:10.083Z,31.20
2019-03-21T21:22:38.759Z,30.70
2019-03-21T21:25:09.808Z,28.73
2019-03-21T21:27:48.776Z,33.83
2019-03-21T21:30:10.264Z,32.55
2019-03-21T21:32:41.241Z,38.90
2019-03-21T21:35:11.311Z,40.60
2019-03-21T21:37:41.399Z,54.55
2019-03-21T21:40:11.796Z,58.58
2019-03-21T21:42:41.898Z,60.67
2019-03-21T21:45:12.488Z,51.97
2019-03-21T21:47:41.233Z,34.33
2019-03-21T21:50:11.703Z,39.38
2019-03-21T21:52:42.149Z,54.05
2019-03-21T21:55:09.639Z,30.25
2019-03-21T21:57:39.938Z,47.90
2019-03-21T22:00:10.637Z,46.25
2019-03-21T22:02:39.447Z,49.17
2019-03-21T22:05:09.796Z,36.92
2019-03-21T22:07:40.439Z,17.42
2019-03-21T22:10:09.627Z,23.15
2019-03-21T22:12:40.537Z,46.13
2019-03-21T22:15:11.298Z,34.15
2019-03-21T22:17:40.058Z,84.03
2019-03-21T22:20:09.328Z,93.55
2019-03-21T22:22:38.544Z,80.18
2019-03-21T22:25:08.168Z,73.82
2019-03-21T22:27:36.859Z,43.50
2019-03-21T22:30:07.991Z,32.10
2019-03-21T22:32:36.369Z,68.82
2019-03-21T22:35:08.315Z,31.20
2019-03-21T22:37:37.027Z,27.23
2019-03-21T22:40:08.081Z,16.60
2019-03-21T22:42:38.189Z,39.35
2019-03-21T22:45:09.038Z,26.60
2019-03-21T22:47:39.345Z,30.83
2019-03-21T22:50:09.218Z,58.38
2019-03-21T22:52:39.470Z,49.35
2019-03-21T22:55:10.191Z,46.70
2019-03-21T22:57:40.380Z,21.30
2019-03-21T23:00:11.573Z,52.85
2019-03-21T23:02:41.686Z,56.88
2019-03-21T23:05:11.915Z,43.75
2019-03-21T23:07:40.596Z,28.95
2019-03-21T23:10:09.916Z,64.30
2019-03-21T23:12:40.108Z,69.10
2019-03-21T23:15:10.052Z,50.22
2019-03-21T23:17:38.822Z,60.65
2019-03-21T23:20:09.493Z,64.60
2019-03-21T23:22:39.717Z,65.22
2019-03-21T23:25:08.459Z,71.80
2019-03-21T23:27:38.637Z,76.55
2019-03-21T23:30:08.694Z,77.93
2019-03-21T23:32:39.049Z,78.70
2019-03-21T23:35:09.172Z,99.00
2019-03-21T23:37:40.060Z,86.55
2019-03-21T23:40:10.915Z,191.18
2019-03-21T23:42:39.571Z,299.40
2019-03-21T23:45:10.085Z,418.90
2019-03-21T23:47:40.171Z,737.75
2019-03-21T23:50:09.566Z,557.83
2019-03-21T23:52:38.871Z,487.15
2019-03-21T23:55:08.198Z,614.65
2019-03-21T23:57:38.387Z,508.12
